Time;durP1;ratioP1;P1;durP2;ratioP2;P2;SDS_P1;SDS_P2;PMS_P1;PMS_P2;Temp;Humidity;BMP_temperature;BMP_pressure;BME280_temperature;BME280_humidity;BME280_pressure;Samples;Min_cycle;Max_cycle;Signal;HPM_P1;HPM_P2
2022/10/06 00:01:04;;;;;;;10.25;4.03;;;;;;;12.49;82.04;150792.31;1671762;84;21155;-59
2022/10/06 00:03:31;;;;;;;10.20;3.47;;;;;;;12.48;81.81;150789.66;1672398;84;21215;-59
2022/10/06 00:06:00;;;;;;;7.08;3.30;;;;;;;12.49;81.50;150792.31;1672005;84;21542;-59
2022/10/06 00:08:27;;;;;;;5.30;3.45;;;;;;;12.49;80.84;150792.31;1696540;82;21164;-58
2022/10/06 00:10:55;;;;;;;7.83;3.60;;;;;;;12.53;80.93;150802.69;1704050;84;21068;-59
2022/10/06 00:13:23;;;;;;;16.75;4.35;;;;;;;12.58;81.07;150815.67;1704172;82;21048;-60
2022/10/06 00:15:51;;;;;;;8.68;4.12;;;;;;;12.63;80.43;150826.06;1704321;84;21048;-59
2022/10/06 00:18:19;;;;;;;12.55;4.67;;;;;;;12.60;80.56;150820.88;1704004;84;21502;-59
2022/10/06 00:20:56;;;;;;;11.18;3.67;;;;;;;12.55;81.05;150806.56;1704153;82;21087;-59
2022/10/06 00:23:22;;;;;;;16.30;4.33;;;;;;;12.49;80.15;150792.31;1703801;84;21028;-60
2022/10/06 00:25:50;;;;;;;16.00;5.00;;;;;;;12.47;79.91;150787.06;1704038;82;21100;-59
2022/10/06 00:28:17;;;;;;;10.88;3.77;;;;;;;12.46;80.36;150784.47;1704035;84;21361;-59
2022/10/06 00:30:45;;;;;;;9.00;4.05;;;;;;;12.43;80.23;150776.67;1704071;84;21476;-59
2022/10/06 00:33:16;;;;;;;17.87;3.50;;;;;;;12.40;79.44;150768.89;1704152;84;21469;-60
2022/10/06 00:35:43;;;;;;;8.58;3.60;;;;;;;12.39;78.57;150767.61;1704660;84;21103;-58
2022/10/06 00:38:13;;;;;;;10.58;3.85;;;;;;;12.41;78.65;150772.81;1680783;82;21309;-59
2022/10/06 00:40:48;;;;;;;10.65;3.42;;;;;;;12.41;78.62;150771.48;1671463;84;22415;-59
2022/10/06 00:43:42;;;;;;;12.40;3.33;;;;;;;12.39;77.86;150767.61;1670812;84;21088;-59
2022/10/06 00:46:17;;;;;;;12.23;3.65;;;;;;;12.41;77.29;150771.48;1671444;84;21144;-58
2022/10/06 00:48:51;;;;;;;7.55;3.10;;;;;;;12.43;77.09;150776.67;1691924;82;21100;-59
2022/10/06 00:51:19;;;;;;;4.55;2.58;;;;;;;12.46;76.04;150784.47;1704148;84;21045;-59
2022/10/06 00:53:46;;;;;;;5.42;2.60;;;;;;;12.49;75.08;150792.31;1704087;82;21192;-59
2022/10/06 00:56:13;;;;;;;10.85;3.33;;;;;;;12.52;74.65;150800.09;1703827;82;21184;-59
2022/10/06 00:58:40;;;;;;;6.22;2.20;;;;;;;12.53;74.54;150802.69;1704099;84;21045;-59
2022/10/06 01:01:07;;;;;;;14.30;3.37;;;;;;;12.53;72.86;150802.69;1676332;84;21085;-60
2022/10/06 01:03:37;;;;;;;4.70;2.70;;;;;;;12.58;72.74;150815.67;1670298;84;21096;-59
2022/10/06 01:06:06;;;;;;;9.15;3.02;;;;;;;12.61;72.44;150823.47;1671290;84;21108;-59
2022/10/06 01:08:34;;;;;;;8.33;3.75;;;;;;;12.64;71.51;150828.66;1677618;82;21057;-59
2022/10/06 01:11:01;;;;;;;10.25;3.20;;;;;;;12.69;71.87;150841.64;1703358;84;21496;-60
2022/10/06 01:13:29;;;;;;;7.58;3.00;;;;;;;12.67;72.36;150837.78;1704078;82;21044;-60
2022/10/06 01:16:15;;;;;;;9.63;3.20;;;;;;;12.65;72.24;150832.58;1650897;84;21036;-60
2022/10/06 01:18:42;;;;;;;7.90;3.15;;;;;;;12.64;71.95;150828.66;1670815;84;21637;-60
2022/10/06 01:21:20;;;;;;;10.65;3.62;;;;;;;12.64;71.43;150828.66;1684226;84;21068;-59
2022/10/06 01:23:48;;;;;;;5.10;2.37;;;;;;;12.63;71.34;150826.06;1671291;84;21068;-59
2022/10/06 01:26:15;;;;;;;5.08;2.12;;;;;;;12.63;70.90;150826.06;1671694;84;21117;-59
2022/10/06 01:28:43;;;;;;;3.77;2.10;;;;;;;12.63;69.97;150826.06;1671402;84;21443;-59
2022/10/06 01:31:10;;;;;;;4.70;2.20;;;;;;;12.67;68.98;150836.45;1671836;84;21205;-70
2022/10/06 01:33:37;;;;;;;9.50;2.75;;;;;;;12.75;68.36;150857.28;1672377;84;21078;-69
2022/10/06 01:36:04;;;;;;;8.68;2.80;;;;;;;12.81;67.93;150871.53;1693458;84;21120;-69
2022/10/06 01:38:31;;;;;;;8.13;3.02;;;;;;;12.83;67.76;150876.78;1704174;82;21112;-69
2022/10/06 01:41:01;;;;;;;5.55;2.87;;;;;;;12.84;68.08;150879.38;1693125;84;21644;-69
2022/10/06 01:43:27;;;;;;;6.75;2.72;;;;;;;12.83;68.15;150878.06;1643926;84;21934;-68
2022/10/06 01:45:55;;;;;;;9.93;3.12;;;;;;;12.83;68.29;150878.06;1704003;84;21112;-70
2022/10/06 01:48:23;;;;;;;5.42;2.60;;;;;;;12.83;68.50;150876.78;1677899;82;21089;-59
2022/10/06 01:50:50;;;;;;;5.53;2.72;;;;;;;12.81;68.50;150872.86;1690995;84;21054;-58
2022/10/06 01:53:17;;;;;;;6.30;2.58;;;;;;;12.81;68.34;150872.86;1688439;84;21049;-59
2022/10/06 01:55:43;;;;;;;5.12;2.90;;;;;;;12.81;68.00;150872.86;1679943;82;21144;-59
2022/10/06 01:58:12;;;;;;;6.33;2.62;;;;;;;12.82;67.63;150875.45;1695378;84;21078;-69
2022/10/06 02:00:39;;;;;;;9.18;3.50;;;;;;;12.83;67.40;150878.06;1693896;82;21116;-69
2022/10/06 02:03:06;;;;;;;11.88;3.77;;;;;;;12.85;67.49;150881.97;1695424;82;21141;-68
2022/10/06 02:05:34;;;;;;;9.40;3.58;;;;;;;12.84;68.04;150880.66;1681005;84;21072;-69
2022/10/06 02:08:01;;;;;;;8.90;3.10;;;;;;;12.83;68.72;150878.06;1684331;84;21142;-59
2022/10/06 02:10:29;;;;;;;7.03;2.72;;;;;;;12.80;68.98;150870.27;1683204;84;21290;-69
2022/10/06 02:12:57;;;;;;;10.80;2.92;;;;;;;12.80;69.29;150870.27;1676805;82;21148;-69
2022/10/06 02:15:26;;;;;;;6.53;2.85;;;;;;;12.79;69.71;150866.34;1672345;84;20989;-69
2022/10/06 02:17:53;;;;;;;13.70;3.33;;;;;;;12.80;70.43;150870.27;1695039;84;21100;-59
2022/10/06 02:20:20;;;;;;;5.30;2.75;;;;;;;12.79;70.93;150867.66;1692970;84;21342;-58
2022/10/06 02:22:47;;;;;;;7.35;3.27;;;;;;;12.80;71.30;150868.94;1677617;84;21081;-69
2022/10/06 02:25:16;;;;;;;10.70;3.15;;;;;;;12.80;71.92;150870.27;1692200;83;21474;-69
2022/10/06 02:27:43;;;;;;;9.95;3.22;;;;;;;12.80;72.94;150870.27;1682200;84;21104;-69
2022/10/06 02:30:13;;;;;;;9.35;3.30;;;;;;;12.77;74.08;150862.47;1678466;84;21089;-59
2022/10/06 02:32:41;;;;;;;7.97;3.52;;;;;;;12.76;74.46;150859.88;1680479;84;21201;-69
2022/10/06 02:35:11;;;;;;;10.63;3.50;;;;;;;12.77;75.09;150862.47;1665755;84;21053;-68
2022/10/06 02:37:40;;;;;;;10.23;3.58;;;;;;;12.73;75.70;150853.36;1676533;82;21140;-69
2022/10/06 02:40:09;;;;;;;8.18;4.05;;;;;;;12.71;76.16;150846.84;1694125;84;20989;-68
2022/10/06 02:42:36;;;;;;;9.35;3.45;;;;;;;12.69;76.36;150841.64;1675200;82;21099;-69
2022/10/06 02:45:05;;;;;;;14.23;3.90;;;;;;;12.69;77.10;150841.64;1682457;84;22055;-69
2022/10/06 02:47:36;;;;;;;13.90;3.90;;;;;;;12.65;77.71;150831.25;1678621;83;21565;-70
2022/10/06 02:50:05;;;;;;;11.73;3.40;;;;;;;12.63;78.30;150826.06;1684931;84;21049;-68
2022/10/06 02:52:35;;;;;;;12.85;3.58;;;;;;;12.58;79.00;150815.67;1694343;84;21542;-69
2022/10/06 02:55:04;;;;;;;13.22;3.47;;;;;;;12.58;79.26;150815.67;1761401;80;21134;-68
2022/10/06 02:57:32;;;;;;;5.17;3.15;;;;;;;12.58;79.60;150815.67;1746727;81;21296;-69
2022/10/06 02:59:59;;;;;;;5.78;3.50;;;;;;;12.57;79.84;150813.08;1724881;81;21461;-67
2022/10/06 03:02:29;;;;;;;7.78;3.12;;;;;;;12.57;80.26;150813.08;1691078;83;21115;-69
2022/10/06 03:04:56;;;;;;;9.85;3.35;;;;;;;12.56;80.61;150810.48;1723807;81;20980;-68
2022/10/06 03:07:23;;;;;;;5.40;3.25;;;;;;;12.57;80.91;150813.08;1728053;81;21047;-69
2022/10/06 03:09:51;;;;;;;6.65;3.55;;;;;;;12.57;81.14;150811.75;1753561;81;22118;-68
2022/10/06 03:12:20;;;;;;;6.20;3.27;;;;;;;12.57;81.37;150813.08;1753473;81;22489;-69
2022/10/06 03:14:47;;;;;;;10.68;3.35;;;;;;;12.56;81.65;150810.48;1754175;81;21027;-69
2022/10/06 03:17:13;;;;;;;5.40;3.12;;;;;;;12.55;81.98;150807.89;1718795;81;21466;-69
2022/10/06 03:19:42;;;;;;;7.80;3.08;;;;;;;12.51;82.16;150797.50;1715155;81;21027;-69
2022/10/06 03:22:09;;;;;;;6.20;3.33;;;;;;;12.50;82.48;150794.91;1713175;81;21133;-69
2022/10/06 03:24:44;;;;;;;7.95;4.00;;;;;;;12.49;82.78;150792.31;1715240;81;21286;-67
2022/10/06 03:27:11;;;;;;;6.33;3.30;;;;;;;12.48;83.18;150789.66;1716143;81;21091;-69
2022/10/06 03:29:38;;;;;;;7.80;3.30;;;;;;;12.47;83.50;150787.06;1718480;81;20972;-70
2022/10/06 03:32:05;;;;;;;7.87;3.40;;;;;;;12.45;83.79;150781.88;1738849;80;21079;-69
2022/10/06 03:34:32;;;;;;;5.83;2.87;;;;;;;12.46;84.08;150784.47;1716011;81;21112;-69
2022/10/06 03:37:00;;;;;;;4.95;3.20;;;;;;;12.45;84.34;150781.88;1711932;81;21099;-70
2022/10/06 03:39:27;;;;;;;8.55;3.35;;;;;;;12.45;84.52;150783.19;1711293;81;21037;-69
2022/10/06 03:41:54;;;;;;;4.58;3.08;;;;;;;12.48;84.77;150788.39;1714497;81;21095;-70
2022/10/06 03:44:23;;;;;;;8.63;3.35;;;;;;;12.48;85.02;150789.66;1717123;81;21368;-69
2022/10/06 03:46:50;;;;;;;8.05;3.65;;;;;;;12.49;85.32;150792.31;1714645;81;21827;-66
2022/10/06 03:49:16;;;;;;;7.47;3.10;;;;;;;12.51;85.64;150797.50;1690988;82;21016;-69
2022/10/06 03:51:45;;;;;;;5.60;3.55;;;;;;;12.52;85.99;150800.09;1698310;82;21058;-69
2022/10/06 03:54:20;;;;;;;9.13;3.72;;;;;;;12.53;86.33;150802.69;1715152;82;21083;-71
2022/10/06 03:56:48;;;;;;;11.68;3.62;;;;;;;12.54;86.62;150805.28;1709377;82;21094;-70
2022/10/06 03:59:16;;;;;;;4.87;3.47;;;;;;;12.56;86.80;150809.16;1698883;82;21127;-69
2022/10/06 04:01:46;;;;;;;5.08;3.60;;;;;;;12.58;87.00;150814.34;1701747;82;21042;-69
2022/10/06 04:04:15;;;;;;;6.72;3.45;;;;;;;12.58;87.10;150815.67;1692046;82;21024;-70
2022/10/06 04:06:44;;;;;;;9.30;3.30;;;;;;;12.60;87.08;150820.88;1707383;82;21154;-70
2022/10/06 04:09:13;;;;;;;7.97;3.40;;;;;;;12.63;87.44;150826.06;1708060;82;21011;-69
2022/10/06 04:11:41;;;;;;;6.75;3.70;;;;;;;12.64;87.54;150828.66;1701913;82;22307;-69
2022/10/06 04:14:11;;;;;;;9.50;3.70;;;;;;;12.64;87.58;150829.98;1692766;82;21116;-68
2022/10/06 04:16:45;;;;;;;6.10;3.37;;;;;;;12.65;87.67;150831.25;1699714;82;21554;-68
2022/10/06 04:19:13;;;;;;;6.50;3.25;;;;;;;12.66;87.75;150833.84;1708230;82;21069;-69
2022/10/06 04:21:45;;;;;;;7.83;3.65;;;;;;;12.68;87.91;150839.05;1707827;82;21055;-70
2022/10/06 04:24:17;;;;;;;12.60;3.92;;;;;;;12.68;87.92;150840.37;1708751;82;21916;-69
2022/10/06 04:26:45;;;;;;;23.18;4.60;;;;;;;12.70;88.20;150844.25;1707793;81;21087;-69
2022/10/06 04:29:13;;;;;;;10.68;4.08;;;;;;;12.60;88.52;150820.88;1716277;82;21082;-69
2022/10/06 04:31:41;;;;;;;15.38;4.12;;;;;;;12.51;89.22;150796.17;1712997;82;20992;-69
2022/10/06 04:34:12;;;;;;;18.65;3.62;;;;;;;12.46;90.02;150784.47;1705317;81;21041;-70
2022/10/06 04:36:40;;;;;;;8.43;3.47;;;;;;;12.45;90.34;150781.88;1693084;82;21486;-68
2022/10/06 04:39:10;;;;;;;10.23;3.42;;;;;;;12.48;89.86;150789.66;1698298;82;21063;-69
2022/10/06 04:41:41;;;;;;;9.70;3.42;;;;;;;12.54;89.18;150805.28;1707127;82;21154;-68
2022/10/06 04:44:09;;;;;;;11.00;3.42;;;;;;;12.60;88.69;150820.88;1712919;82;21089;-71
2022/10/06 04:46:37;;;;;;;22.42;4.10;;;;;;;12.69;88.47;150841.64;1724500;81;21669;-70
2022/10/06 04:49:05;;;;;;;11.40;3.67;;;;;;;12.76;88.59;150859.88;1701905;82;21289;-71
2022/10/06 04:51:33;;;;;;;10.58;3.98;;;;;;;12.82;88.81;150875.45;1698926;82;21049;-59
2022/10/06 04:54:02;;;;;;;13.03;4.05;;;;;;;12.87;88.79;150888.44;1705606;82;21097;-59
2022/10/06 04:56:31;;;;;;;13.62;4.92;;;;;;;12.93;88.88;150901.44;1712807;81;21581;-60
2022/10/06 04:58:59;;;;;;;18.10;4.72;;;;;;;12.97;88.58;150913.14;1712426;82;21036;-59
2022/10/06 05:01:34;;;;;;;14.53;4.50;;;;;;;13.01;88.97;150923.53;1693822;82;21225;-60
2022/10/06 05:04:04;;;;;;;21.10;4.72;;;;;;;13.02;88.91;150924.86;1699822;82;21045;-60
2022/10/06 05:06:37;;;;;;;18.80;4.37;;;;;;;13.06;88.99;150935.25;1694470;82;22452;-60
2022/10/06 05:09:10;;;;;;;24.72;5.50;;;;;;;13.12;89.19;150950.84;1700374;82;21131;-60
2022/10/06 05:11:38;;;;;;;20.57;5.22;;;;;;;13.14;89.31;150956.03;1704745;82;21032;-59
2022/10/06 05:14:07;;;;;;;18.57;4.58;;;;;;;13.17;89.29;150963.88;1704012;82;21151;-59
2022/10/06 05:16:36;;;;;;;18.02;4.42;;;;;;;13.23;88.83;150978.14;1702012;82;21534;-59
2022/10/06 05:19:07;;;;;;;23.02;5.40;;;;;;;13.29;88.64;150992.45;1691875;82;22133;-59
2022/10/06 05:21:35;;;;;;;22.60;5.10;;;;;;;13.33;88.65;151002.84;1681027;82;21113;-59
2022/10/06 05:24:02;;;;;;;32.70;5.45;;;;;;;13.38;88.83;151014.56;1699129;82;21108;-59
2022/10/06 05:26:32;;;;;;;19.07;5.10;;;;;;;13.41;88.85;151023.69;1705660;82;21246;-70
2022/10/06 05:29:00;;;;;;;17.82;4.47;;;;;;;13.45;88.94;151034.13;1715953;82;21084;-69
2022/10/06 05:31:37;;;;;;;25.27;5.83;;;;;;;13.53;88.31;151053.64;1708004;81;21109;-60
2022/10/06 05:34:04;;;;;;;14.47;4.50;;;;;;;13.62;87.57;151075.75;1704179;82;21052;-59
2022/10/06 05:36:32;;;;;;;23.27;4.92;;;;;;;13.72;87.51;151101.73;1692442;82;21177;-59
2022/10/06 05:39:01;;;;;;;22.93;5.60;;;;;;;13.80;86.80;151121.25;1698711;82;22149;-59
2022/10/06 05:41:31;;;;;;;21.85;5.03;;;;;;;13.86;86.41;151135.58;1708083;82;21116;-60
2022/10/06 05:44:00;;;;;;;27.77;5.80;;;;;;;13.92;85.84;151149.84;1702531;81;21109;-60
2022/10/06 05:46:30;;;;;;;35.08;6.10;;;;;;;13.98;84.80;151166.77;1699498;82;21076;-59
2022/10/06 05:49:02;;;;;;;23.70;6.03;;;;;;;14.08;84.38;151190.20;1700287;82;21053;-60
2022/10/06 05:51:32;;;;;;;21.25;5.37;;;;;;;14.20;83.56;151220.13;1704238;82;21533;-59
2022/10/06 05:54:01;;;;;;;20.45;5.30;;;;;;;14.28;80.69;151242.25;1707295;82;21122;-59
2022/10/06 05:56:34;;;;;;;15.00;4.90;;;;;;;14.36;78.68;151260.45;1713836;82;21553;-58
2022/10/06 05:59:02;;;;;;;29.92;6.65;;;;;;;14.47;77.21;151290.38;1714788;82;21063;-60
2022/10/06 06:01:33;;;;;;;25.37;5.40;;;;;;;14.60;77.70;151322.91;1722952;82;21114;-60
2022/10/06 06:04:04;;;;;;;18.92;5.30;;;;;;;14.74;77.98;151358.09;1690213;82;21492;-59
2022/10/06 06:06:43;;;;;;;28.05;5.60;;;;;;;14.87;77.35;151390.63;1713124;82;21047;-59
2022/10/06 06:09:16;;;;;;;19.57;4.40;;;;;;;15.00;76.45;151421.88;1716229;81;21073;-59
2022/10/06 06:11:49;;;;;;;27.73;4.45;;;;;;;15.13;74.03;151455.70;1696219;82;21496;-60
2022/10/06 06:15:59;;;;;;;61.45;7.72;;;;;;;15.25;71.69;151484.37;1695898;82;21641;-60
2022/10/06 06:16:51;;;;;;;64.03;6.87;;;;;;;15.29;69.64;151496.09;1700589;82;21242;-59
2022/10/06 06:19:18;;;;;;;63.80;6.90;;;;;;;15.33;69.91;151506.50;1698471;82;21097;-60
2022/10/06 06:21:46;;;;;;;94.52;9.03;;;;;;;15.42;70.03;151527.31;1700047;82;21081;-60
2022/10/06 06:24:15;;;;;;;98.72;8.55;;;;;;;15.55;69.59;151559.88;1700575;82;21052;-60
2022/10/06 06:26:42;;;;;;;110.15;8.55;;;;;;;15.69;69.14;151596.34;1698943;82;21115;-70
2022/10/06 06:29:09;;;;;;;65.65;6.62;;;;;;;15.85;68.23;151635.44;1704557;82;21652;-70
2022/10/06 06:31:39;;;;;;;76.37;7.20;;;;;;;15.98;66.41;151669.33;1702952;82;21076;-68
2022/10/06 06:34:08;;;;;;;47.27;6.95;;;;;;;16.04;64.70;151685.00;1698945;82;21518;-69
2022/10/06 06:36:39;;;;;;;20.02;4.28;;;;;;;16.10;61.87;151699.28;1712715;82;21100;-69
2022/10/06 06:39:11;;;;;;;30.43;4.08;;;;;;;16.15;58.69;151712.34;1700403;81;21102;-68
2022/10/06 06:41:46;;;;;;;27.90;3.92;;;;;;;16.26;58.47;151738.37;1700458;82;21723;-69
2022/10/06 06:44:33;;;;;;;23.18;3.67;;;;;;;16.43;56.69;151782.69;1636889;85;21702;-70
2022/10/06 06:47:16;;;;;;;14.80;2.83;;;;;;;16.52;56.05;151804.84;1643508;85;21122;-69
2022/10/06 06:49:46;;;;;;;14.53;2.55;;;;;;;16.57;55.53;151817.88;1664915;82;21225;-70
2022/10/06 06:52:13;;;;;;;8.15;3.02;;;;;;;16.60;53.93;151825.69;1703983;82;21107;-69
2022/10/06 06:54:42;;;;;;;7.22;2.67;;;;;;;16.60;53.88;151824.41;1718727;80;22402;-70
2022/10/06 06:57:11;;;;;;;17.15;2.87;;;;;;;16.61;53.93;151828.28;1695157;82;21068;-70
2022/10/06 06:59:38;;;;;;;11.30;3.50;;;;;;;16.68;54.19;151843.91;1703820;82;21043;-70
2022/10/06 07:02:10;;;;;;;10.38;3.00;;;;;;;16.76;54.23;151866.06;1708813;82;21469;-69
2022/10/06 07:04:39;;;;;;;14.20;2.85;;;;;;;16.85;54.08;151886.95;1707901;82;21287;-70
2022/10/06 07:07:08;;;;;;;10.53;3.58;;;;;;;16.86;53.70;151890.84;1703650;82;21237;-69
2022/10/06 07:09:37;;;;;;;13.10;3.60;;;;;;;16.86;55.95;151889.56;1664726;83;21067;-70
2022/10/06 07:12:10;;;;;;;10.70;3.85;;;;;;;16.85;56.09;151888.23;1698329;82;21670;-70
2022/10/06 07:25:05;;;;;;;12.68;4.20;;;;;;;16.77;56.46;151867.41;1680518;83;21640;-70
2022/10/06 07:25:25;;;;;;;13.90;3.98;;;;;;;16.69;57.54;151846.52;1665171;84;25154;-69
2022/10/06 07:27:54;;;;;;;15.28;4.17;;;;;;;16.68;57.26;151843.91;1676821;84;21088;-69
2022/10/06 07:30:27;;;;;;;9.13;3.83;;;;;;;16.74;57.18;151859.58;1666826;84;21073;-69
2022/10/06 07:32:55;;;;;;;11.08;4.42;;;;;;;16.79;56.71;151871.28;1663829;84;21949;-69
2022/10/06 07:35:24;;;;;;;6.65;3.80;;;;;;;16.89;56.28;151898.66;1664024;84;21141;-69
2022/10/06 07:37:56;;;;;;;6.70;3.50;;;;;;;17.08;55.60;151944.36;1677150;84;21052;-70
2022/10/06 07:40:24;;;;;;;8.95;3.58;;;;;;;17.26;54.68;151989.97;1682495;84;21084;-69
2022/10/06 07:42:50;;;;;;;6.42;3.40;;;;;;;17.38;54.42;152021.28;1666867;84;21141;-69
2022/10/06 07:45:48;;;;;;;8.50;3.17;;;;;;;17.54;53.76;152061.69;1671049;84;21167;-69
2022/10/06 07:48:20;;;;;;;8.03;2.72;;;;;;;17.67;52.64;152094.28;1679182;84;21101;-67
2022/10/06 07:50:51;;;;;;;3.57;2.20;;;;;;;17.72;51.50;152107.31;1686027;84;21076;-72
2022/10/06 07:53:20;;;;;;;5.08;1.90;;;;;;;17.76;50.68;152117.73;1682116;84;21586;-70
2022/10/06 07:55:48;;;;;;;3.30;1.70;;;;;;;17.79;49.87;152122.95;1699713;82;21005;-70
2022/10/06 07:58:22;;;;;;;4.83;2.00;;;;;;;17.83;49.58;152134.70;1707406;82;21717;-69
2022/10/06 08:00:51;;;;;;;2.98;2.00;;;;;;;17.89;48.74;152149.06;1714230;82;21049;-70
2022/10/06 08:03:18;;;;;;;5.33;2.00;;;;;;;17.90;48.93;152151.67;1675872;84;21052;-68
2022/10/06 08:05:47;;;;;;;4.58;2.40;;;;;;;17.93;49.01;152159.48;1671549;84;21130;-69
2022/10/06 08:08:14;;;;;;;6.15;2.40;;;;;;;18.01;48.92;152180.39;1706135;81;21015;-69
2022/10/06 08:10:41;;;;;;;5.45;2.20;;;;;;;18.12;47.92;152207.78;1709077;82;21816;-69
2022/10/06 08:13:09;;;;;;;3.67;1.80;;;;;;;18.19;47.19;152224.75;1703662;82;21517;-69
2022/10/06 08:15:38;;;;;;;3.02;1.90;;;;;;;18.25;47.18;152240.44;1724171;82;21110;-70
2022/10/06 08:18:06;;;;;;;3.65;1.52;;;;;;;18.36;46.91;152266.50;1709399;82;44893;-69
2022/10/06 08:20:34;;;;;;;3.40;2.00;;;;;;;18.46;46.68;152292.62;1706210;82;21123;-68
2022/10/06 08:23:11;;;;;;;4.17;1.80;;;;;;;18.55;46.80;152314.77;1705009;82;21287;-71
2022/10/06 08:25:31;;;;;;;3.08;1.70;;;;;;;18.67;46.42;152344.77;1713033;81;21481;-70
2022/10/06 08:27:58;;;;;;;6.70;1.87;;;;;;;18.77;46.38;152370.91;1712553;82;21112;-70
2022/10/06 08:30:25;;;;;;;4.97;1.67;;;;;;;18.87;46.36;152396.97;1713237;82;21047;-70
2022/10/06 08:32:52;;;;;;;4.70;1.67;;;;;;;18.97;46.18;152420.50;1711843;82;21198;-70
2022/10/06 08:35:20;;;;;;;2.10;1.40;;;;;;;19.06;46.15;152444.02;1714477;82;22089;-60
2022/10/06 08:37:49;;;;;;;3.50;1.57;;;;;;;19.14;45.73;152463.61;1714549;82;21051;-59
2022/10/06 08:40:18;;;;;;;5.22;1.60;;;;;;;19.15;45.54;152466.22;1711793;82;21528;-60
2022/10/06 08:42:49;;;;;;;5.72;1.70;;;;;;;19.15;45.52;152466.22;1707184;81;21076;-70
2022/10/06 08:45:34;;;;;;;4.00;1.42;;;;;;;19.11;45.95;152457.06;1710889;81;21088;-60
2022/10/06 08:48:12;;;;;;;4.50;1.70;;;;;;;19.16;46.22;152470.16;1671402;84;21084;-59
2022/10/06 08:50:57;;;;;;;5.67;2.60;;;;;;;19.27;46.19;152496.23;1711779;82;22209;-59
2022/10/06 08:54:01;;;;;;;5.55;2.22;;;;;;;19.35;47.29;152517.16;1717521;82;21110;-59
2022/10/06 08:56:53;;;;;;;4.03;2.25;;;;;;;19.36;48.25;152519.77;1715643;83;21105;-62
2022/10/06 08:59:21;;;;;;;4.25;2.50;;;;;;;19.30;48.82;152505.39;1705806;81;21060;-61
2022/10/06 09:01:50;;;;;;;3.95;2.20;;;;;;;19.16;49.50;152470.16;1711761;83;21814;-59
2022/10/06 09:04:28;;;;;;;6.55;2.70;;;;;;;19.14;50.11;152464.94;1714541;83;21546;-62
2022/10/06 09:07:06;;;;;;;4.55;2.50;;;;;;;19.20;50.09;152479.25;1708188;83;21613;-59
2022/10/06 09:10:09;;;;;;;4.62;2.30;;;;;;;19.25;50.43;152491.02;1701133;83;21142;-60
2022/10/06 09:12:47;;;;;;;6.05;2.25;;;;;;;19.26;50.42;152493.63;1711885;83;21176;-59
2022/10/06 09:15:48;;;;;;;4.45;1.90;;;;;;;19.29;50.15;152501.45;1700231;83;21280;-59
2022/10/06 09:18:34;;;;;;;7.20;2.40;;;;;;;19.31;50.48;152506.67;1713778;82;21643;-59
2022/10/06 09:21:16;;;;;;;3.25;2.10;;;;;;;19.34;50.01;152514.50;1703975;83;21073;-60
2022/10/06 09:23:47;;;;;;;4.00;2.02;;;;;;;19.36;50.30;152519.77;1712543;83;21065;-59
2022/10/06 09:26:21;;;;;;;4.95;2.10;;;;;;;19.39;50.48;152527.59;1712849;83;21343;-59
2022/10/06 09:28:49;;;;;;;6.37;2.15;;;;;;;19.44;50.56;152540.64;1707252;82;21525;-60
2022/10/06 09:31:26;;;;;;;5.50;2.20;;;;;;;19.45;50.39;152543.25;1706738;83;21271;-60
2022/10/06 09:34:00;;;;;;;5.97;3.00;;;;;;;19.42;50.19;152535.42;1711265;83;21045;-59
2022/10/06 09:36:28;;;;;;;3.12;2.15;;;;;;;19.42;50.23;152535.42;1712881;83;21021;-59
2022/10/06 09:38:58;;;;;;;5.15;3.40;;;;;;;19.41;50.19;152531.48;1715054;83;21767;-60
2022/10/06 09:41:32;;;;;;;7.45;2.83;;;;;;;19.42;50.31;152535.42;1706896;83;21438;-60
2022/10/06 09:44:03;;;;;;;5.47;2.98;;;;;;;19.45;49.59;152543.25;1710360;83;21656;-69
2022/10/06 09:46:40;;;;;;;6.87;2.25;;;;;;;19.44;49.23;152540.64;1692795;84;21056;-58
2022/10/06 09:49:23;;;;;;;3.60;2.05;;;;;;;19.44;49.34;152540.64;1705917;83;21104;-61
2022/10/06 09:52:14;;;;;;;5.45;1.87;;;;;;;19.40;49.26;152530.20;1691150;84;21084;-58
2022/10/06 09:54:42;;;;;;;4.42;2.12;;;;;;;19.42;49.54;152535.42;1681663;84;21502;-59
2022/10/06 09:57:16;;;;;;;5.30;2.02;;;;;;;19.42;50.11;152535.42;1681669;84;21584;-70
2022/10/06 09:59:46;;;;;;;5.65;1.80;;;;;;;19.43;50.56;152538.03;1681065;83;21044;-69
2022/10/06 10:02:38;;;;;;;4.33;2.20;;;;;;;19.39;50.51;152527.59;1690628;84;20991;-69
2022/10/06 10:05:20;;;;;;;3.10;1.82;;;;;;;19.30;51.21;152504.06;1674768;84;21040;-69
2022/10/06 10:08:08;;;;;;;2.08;1.85;;;;;;;19.23;51.09;152487.13;1682068;84;21268;-70
2022/10/06 10:10:36;;;;;;;6.58;1.80;;;;;;;19.20;50.78;152477.97;1674449;84;21576;-70
2022/10/06 10:13:28;;;;;;;2.62;2.10;;;;;;;19.15;51.17;152467.55;1688231;84;21044;-67
2022/10/06 10:15:58;;;;;;;3.62;2.30;;;;;;;19.12;52.14;152458.39;1690768;83;21115;-64
2022/10/06 10:18:29;;;;;;;4.28;2.05;;;;;;;19.08;52.27;152449.23;1693750;84;21070;-64
2022/10/06 10:20:59;;;;;;;2.65;2.12;;;;;;;19.02;52.03;152433.59;1695314;83;21020;-65
2022/10/06 10:23:37;;;;;;;5.22;2.00;;;;;;;18.99;52.47;152425.77;1692772;84;21039;-66
2022/10/06 10:26:25;;;;;;;6.35;2.70;;;;;;;18.98;51.12;152423.11;1677235;83;21084;-65
2022/10/06 10:29:29;;;;;;;3.52;2.00;;;;;;;18.90;51.44;152404.84;1684641;84;21067;-63
2022/10/06 10:32:22;;;;;;;4.17;1.82;;;;;;;18.86;51.78;152394.38;1678225;84;21084;-63
2022/10/06 10:35:15;;;;;;;4.53;2.00;;;;;;;18.88;52.62;152398.31;1668925;84;21494;-63
2022/10/06 10:38:17;;;;;;;4.87;2.20;;;;;;;18.89;52.97;152400.91;1670367;83;21066;-64
2022/10/06 10:40:47;;;;;;;7.33;2.50;;;;;;;18.86;52.97;152393.09;1699465;84;21154;-63
2022/10/06 10:43:33;;;;;;;7.67;2.70;;;;;;;18.82;53.10;152383.94;1697401;84;22296;-64
2022/10/06 10:46:31;;;;;;;2.62;2.12;;;;;;;18.83;53.51;152386.55;1691410;83;21517;-64
2022/10/06 10:49:14;;;;;;;3.08;2.08;;;;;;;18.84;54.29;152387.88;1707040;83;21445;-64
2022/10/06 10:52:10;;;;;;;5.70;1.82;;;;;;;18.86;54.61;152394.38;1708678;81;21069;-64
2022/10/06 10:55:05;;;;;;;2.33;1.82;;;;;;;18.85;54.94;152391.75;1701959;81;22273;-59
2022/10/06 10:57:39;;;;;;;2.87;1.90;;;;;;;18.81;54.46;152381.33;1657627;85;21553;-60
2022/10/06 11:00:11;;;;;;;3.62;1.67;;;;;;;18.79;54.59;152376.11;1639261;85;20966;-60
2022/10/06 11:02:39;;;;;;;5.45;2.12;;;;;;;18.75;54.20;152365.69;1636663;86;21880;-61
2022/10/06 11:05:23;;;;;;;2.58;1.77;;;;;;;18.71;53.65;152356.53;1695078;83;21220;-62
2022/10/06 11:07:58;;;;;;;9.78;2.20;;;;;;;18.66;53.59;152343.50;1703665;83;21024;-61
2022/10/06 11:10:38;;;;;;;5.05;2.33;;;;;;;18.68;54.81;152347.38;1705823;83;21626;-62
2022/10/06 11:13:17;;;;;;;4.37;1.90;;;;;;;18.65;54.62;152339.56;1708629;83;21043;-60
2022/10/06 11:16:28;;;;;;;4.58;1.85;;;;;;;18.65;54.59;152339.56;1709844;83;21403;-60
2022/10/06 11:19:16;;;;;;;2.58;1.75;;;;;;;18.63;54.56;152335.67;1700414;82;21526;-60
2022/10/06 11:22:13;;;;;;;2.00;1.80;;;;;;;18.58;54.77;152323.91;1700706;83;21051;-60
2022/10/06 11:25:12;;;;;;;4.17;1.80;;;;;;;18.56;55.64;152318.70;1695988;83;21056;-61
2022/10/06 11:28:01;;;;;;;3.27;2.00;;;;;;;18.57;54.71;152321.31;1696768;83;21031;-60
2022/10/06 11:30:29;;;;;;;2.85;1.90;;;;;;;18.54;54.08;152313.48;1690053;84;21224;-60
2022/10/06 11:33:10;;;;;;;2.83;1.82;;;;;;;18.52;54.55;152308.27;1700527;82;21031;-59
2022/10/06 11:35:42;;;;;;;3.87;2.00;;;;;;;18.55;54.51;152314.77;1697923;83;21592;-60
2022/10/06 11:38:34;;;;;;;4.87;1.90;;;;;;;18.54;55.03;152312.16;1705119;83;21402;-60
2022/10/06 11:41:30;;;;;;;6.37;2.33;;;;;;;18.47;54.08;152295.23;1697220;83;21114;-60
2022/10/06 11:44:18;;;;;;;3.72;2.10;;;;;;;18.44;55.57;152287.36;1699298;83;21093;-60
2022/10/06 11:46:55;;;;;;;6.08;1.85;;;;;;;18.42;56.42;152283.47;1686727;84;21067;-60
2022/10/06 11:49:34;;;;;;;3.52;2.00;;;;;;;18.42;55.07;152282.16;1700990;83;21062;-59
2022/10/06 11:52:12;;;;;;;4.30;2.05;;;;;;;18.42;54.80;152283.47;1680317;83;22799;-68
2022/10/06 11:55:12;;;;;;;3.75;1.95;;;;;;;18.48;54.37;152297.84;1678737;84;21500;-70